Terminal Aerodrome Forecast
Issued by NWS Twin Cities, MN

Home | Current Version | Previous Version | Text Only | Print | Product List | Glossary On
Versions: 1 2 3 4 5 6 7 8 9 10 11 12 13 14 15 16 17 18
000
FTUS43 KMPX 301443 AAA
TAFEAU
TAF AMD
KEAU 301443Z 3015/3112 02013G21KT P6SM BKN020 OVC250
     FM301900 02013G21KT P6SM SCT030 BKN250
     FM310100 03009KT P6SM FEW250=

USA.gov is the U.S. government's official web portal to all federal, state and local government web resources and services.